LEJR/XRY METAR and TAF weather

Enter ICAO airport designator
Station Type Date Time Source
LEJR METAR 2022/11/30 10:30 UTC NOAA

LEJR 301030Z VRB01KT CAVOK 11/05 Q1018


Station Type Date Time Source
LEJR Decoded METAR 2022/11/30 10:30 UTC NOAA

Jerez De La Fronteraaeropuerto, Spain (LEJR) 36-45N 006-04W 28M
Nov 30, 2022 - 05:30 AM EST / 2022.11.30 1030 UTC
Wind: Variable at 1 MPH (1 KT):0
Visibility: greater than 7 mile(s):0
Temperature: 51 F (11 C)
Dew Point: 41 F (5 C)
Relative Humidity: 66%
Pressure (altimeter): 30.06 in. Hg (1018 hPa)
ob: LEJR 301030Z VRB01KT CAVOK 11/05 Q1018
cycle: 10

Station Type Date Time Source
LEJR TAF 2022/11/30 09:27 UTC NOAA

TAF LEJR 300800Z 3009/0109 35005KT CAVOK TX18/3015Z TN03/0107Z PROB30
TEMPO 3020/0108 4000 RA BR BKN014

Example: see airport list